sensor_id;sensor_type;location;lat;lon;timestamp;temperature;humidity
23259;DHT22;11798;51.528;7.240;2022-09-21T00:00:23;8.80;99.90
23259;DHT22;11798;51.528;7.240;2022-09-21T00:02:49;8.80;99.90
23259;DHT22;11798;51.528;7.240;2022-09-21T00:05:16;8.70;99.90
23259;DHT22;11798;51.528;7.240;2022-09-21T00:07:42;8.80;99.90
23259;DHT22;11798;51.528;7.240;2022-09-21T00:10:08;8.70;99.90
23259;DHT22;11798;51.528;7.240;2022-09-21T00:12:34;8.70;99.90
23259;DHT22;11798;51.528;7.240;2022-09-21T00:15:05;8.70;99.90
23259;DHT22;11798;51.528;7.240;2022-09-21T00:17:31;8.70;99.90
23259;DHT22;11798;51.528;7.240;2022-09-21T00:19:56;8.70;99.90
23259;DHT22;11798;51.528;7.240;2022-09-21T00:22:22;8.70;99.90
23259;DHT22;11798;51.528;7.240;2022-09-21T00:24:47;8.70;99.90
23259;DHT22;11798;51.528;7.240;2022-09-21T00:27:13;8.70;99.90
23259;DHT22;11798;51.528;7.240;2022-09-21T00:29:38;8.70;99.90
23259;DHT22;11798;51.528;7.240;2022-09-21T00:32:04;8.70;99.90
23259;DHT22;11798;51.528;7.240;2022-09-21T00:34:30;8.70;99.90
23259;DHT22;11798;51.528;7.240;2022-09-21T00:36:56;8.70;99.90
23259;DHT22;11798;51.528;7.240;2022-09-21T00:39:22;8.70;99.90
23259;DHT22;11798;51.528;7.240;2022-09-21T00:41:47;8.60;99.90
23259;DHT22;11798;51.528;7.240;2022-09-21T00:46:47;8.70;99.90
23259;DHT22;11798;51.528;7.240;2022-09-21T00:49:13;8.60;99.90
23259;DHT22;11798;51.528;7.240;2022-09-21T00:51:40;8.60;99.90
23259;DHT22;11798;51.528;7.240;2022-09-21T00:54:13;8.60;99.90
23259;DHT22;11798;51.528;7.240;2022-09-21T00:56:42;8.60;99.90
23259;DHT22;11798;51.528;7.240;2022-09-21T00:59:09;8.60;99.90
23259;DHT22;11798;51.528;7.240;2022-09-21T01:01:37;8.60;99.90
23259;DHT22;11798;51.528;7.240;2022-09-21T01:04:04;8.60;99.90
23259;DHT22;11798;51.528;7.240;2022-09-21T01:06:33;8.60;99.90
23259;DHT22;11798;51.528;7.240;2022-09-21T01:08:59;8.60;99.90
23259;DHT22;11798;51.528;7.240;2022-09-21T01:16:47;8.50;99.90
23259;DHT22;11798;51.528;7.240;2022-09-21T01:25:51;8.50;99.90
23259;DHT22;11798;51.528;7.240;2022-09-21T01:30:58;8.50;99.90
23259;DHT22;11798;51.528;7.240;2022-09-21T01:33:37;8.50;99.90
23259;DHT22;11798;51.528;7.240;2022-09-21T01:36:07;8.40;99.90
23259;DHT22;11798;51.528;7.240;2022-09-21T01:38:43;8.40;99.90
23259;DHT22;11798;51.528;7.240;2022-09-21T01:41:12;8.40;99.90
23259;DHT22;11798;51.528;7.240;2022-09-21T01:43:46;8.40;99.90
23259;DHT22;11798;51.528;7.240;2022-09-21T01:46:16;8.40;99.90
23259;DHT22;11798;51.528;7.240;2022-09-21T01:48:49;8.40;99.90
23259;DHT22;11798;51.528;7.240;2022-09-21T01:51:18;8.40;99.90
23259;DHT22;11798;51.528;7.240;2022-09-21T01:56:21;8.30;99.90
23259;DHT22;11798;51.528;7.240;2022-09-21T02:01:56;8.30;99.90
23259;DHT22;11798;51.528;7.240;2022-09-21T02:04:23;8.30;99.90
23259;DHT22;11798;51.528;7.240;2022-09-21T02:06:49;8.30;99.90
23259;DHT22;11798;51.528;7.240;2022-09-21T02:09:16;8.30;99.90
23259;DHT22;11798;51.528;7.240;2022-09-21T02:11:42;8.30;99.90
23259;DHT22;11798;51.528;7.240;2022-09-21T02:14:15;8.30;99.90
23259;DHT22;11798;51.528;7.240;2022-09-21T02:22:14;8.30;99.90
23259;DHT22;11798;51.528;7.240;2022-09-21T02:24:44;8.30;99.90
23259;DHT22;11798;51.528;7.240;2022-09-21T02:37:58;8.30;99.90
23259;DHT22;11798;51.528;7.240;2022-09-21T02:43:07;8.20;99.90
23259;DHT22;11798;51.528;7.240;2022-09-21T02:45:40;8.20;99.90
23259;DHT22;11798;51.528;7.240;2022-09-21T02:48:36;8.20;99.90
23259;DHT22;11798;51.528;7.240;2022-09-21T02:51:10;8.20;99.90
23259;DHT22;11798;51.528;7.240;2022-09-21T02:53:38;8.20;99.90
23259;DHT22;11798;51.528;7.240;2022-09-21T02:56:06;8.10;99.90
23259;DHT22;11798;51.528;7.240;2022-09-21T02:59:00;8.20;99.90
23259;DHT22;11798;51.528;7.240;2022-09-21T03:01:27;8.10;99.90
23259;DHT22;11798;51.528;7.240;2022-09-21T03:03:53;8.10;99.90
23259;DHT22;11798;51.528;7.240;2022-09-21T03:06:19;8.10;99.90
23259;DHT22;11798;51.528;7.240;2022-09-21T03:08:45;8.10;99.90
23259;DHT22;11798;51.528;7.240;2022-09-21T03:11:15;8.10;99.90
23259;DHT22;11798;51.528;7.240;2022-09-21T03:13:41;8.00;99.90
23259;DHT22;11798;51.528;7.240;2022-09-21T03:16:07;8.00;99.90
23259;DHT22;11798;51.528;7.240;2022-09-21T03:18:33;8.00;99.90
23259;DHT22;11798;51.528;7.240;2022-09-21T03:20:59;8.00;99.90
23259;DHT22;11798;51.528;7.240;2022-09-21T03:23:26;8.00;99.90
23259;DHT22;11798;51.528;7.240;2022-09-21T03:25:52;8.00;99.90
23259;DHT22;11798;51.528;7.240;2022-09-21T03:28:20;8.00;99.90
23259;DHT22;11798;51.528;7.240;2022-09-21T03:30:48;7.90;99.90
23259;DHT22;11798;51.528;7.240;2022-09-21T03:33:14;7.90;99.90
23259;DHT22;11798;51.528;7.240;2022-09-21T03:35:40;7.90;99.90
23259;DHT22;11798;51.528;7.240;2022-09-21T03:38:06;7.90;99.90
23259;DHT22;11798;51.528;7.240;2022-09-21T03:40:33;7.90;99.90
23259;DHT22;11798;51.528;7.240;2022-09-21T03:42:58;7.90;99.90
23259;DHT22;11798;51.528;7.240;2022-09-21T03:45:24;7.90;99.90
23259;DHT22;11798;51.528;7.240;2022-09-21T03:47:57;7.90;99.90
23259;DHT22;11798;51.528;7.240;2022-09-21T03:50:24;7.90;99.90
23259;DHT22;11798;51.528;7.240;2022-09-21T03:52:50;7.90;99.90
23259;DHT22;11798;51.528;7.240;2022-09-21T03:55:16;7.90;99.90
23259;DHT22;11798;51.528;7.240;2022-09-21T03:57:42;7.90;99.90
23259;DHT22;11798;51.528;7.240;2022-09-21T04:00:08;7.90;99.90
23259;DHT22;11798;51.528;7.240;2022-09-21T04:02:35;7.90;99.90
23259;DHT22;11798;51.528;7.240;2022-09-21T04:05:02;7.90;99.90
23259;DHT22;11798;51.528;7.240;2022-09-21T04:07:30;7.80;99.90
23259;DHT22;11798;51.528;7.240;2022-09-21T04:10:04;7.80;99.90
23259;DHT22;11798;51.528;7.240;2022-09-21T04:12:31;7.80;99.90
23259;DHT22;11798;51.528;7.240;2022-09-21T04:14:59;7.80;99.90
23259;DHT22;11798;51.528;7.240;2022-09-21T04:17:26;7.80;99.90
23259;DHT22;11798;51.528;7.240;2022-09-21T04:19:51;7.80;99.90
23259;DHT22;11798;51.528;7.240;2022-09-21T04:22:17;7.80;99.90
23259;DHT22;11798;51.528;7.240;2022-09-21T04:24:43;7.70;99.90
23259;DHT22;11798;51.528;7.240;2022-09-21T04:27:10;7.80;99.90
23259;DHT22;11798;51.528;7.240;2022-09-21T04:29:36;7.80;99.90
23259;DHT22;11798;51.528;7.240;2022-09-21T04:32:02;7.70;99.90
23259;DHT22;11798;51.528;7.240;2022-09-21T04:34:29;7.70;99.90
23259;DHT22;11798;51.528;7.240;2022-09-21T04:36:56;7.80;99.90
23259;DHT22;11798;51.528;7.240;2022-09-21T04:39:22;7.70;99.90
23259;DHT22;11798;51.528;7.240;2022-09-21T04:41:48;7.70;99.90
23259;DHT22;11798;51.528;7.240;2022-09-21T04:44:14;7.70;99.90
23259;DHT22;11798;51.528;7.240;2022-09-21T04:46:39;7.70;99.90
23259;DHT22;11798;51.528;7.240;2022-09-21T04:49:06;7.70;99.90
23259;DHT22;11798;51.528;7.240;2022-09-21T04:51:33;7.70;99.90
23259;DHT22;11798;51.528;7.240;2022-09-21T04:53:59;7.70;99.90
23259;DHT22;11798;51.528;7.240;2022-09-21T04:56:24;7.70;99.90
23259;DHT22;11798;51.528;7.240;2022-09-21T04:58:50;7.70;99.90
23259;DHT22;11798;51.528;7.240;2022-09-21T05:01:16;7.60;99.90
23259;DHT22;11798;51.528;7.240;2022-09-21T05:03:41;7.60;99.90
23259;DHT22;11798;51.528;7.240;2022-09-21T05:06:09;7.60;99.90
23259;DHT22;11798;51.528;7.240;2022-09-21T05:08:38;7.60;99.90
23259;DHT22;11798;51.528;7.240;2022-09-21T05:11:22;7.60;99.90
23259;DHT22;11798;51.528;7.240;2022-09-21T05:13:48;7.60;99.90
23259;DHT22;11798;51.528;7.240;2022-09-21T05:16:15;7.60;99.90
23259;DHT22;11798;51.528;7.240;2022-09-21T05:18:41;7.60;99.90
23259;DHT22;11798;51.528;7.240;2022-09-21T05:21:08;7.60;99.90
23259;DHT22;11798;51.528;7.240;2022-09-21T05:23:35;7.60;99.90
23259;DHT22;11798;51.528;7.240;2022-09-21T05:26:01;7.60;99.90
23259;DHT22;11798;51.528;7.240;2022-09-21T05:28:27;7.60;99.90
23259;DHT22;11798;51.528;7.240;2022-09-21T05:33:47;7.60;99.90
23259;DHT22;11798;51.528;7.240;2022-09-21T05:36:37;7.70;99.90
23259;DHT22;11798;51.528;7.240;2022-09-21T05:39:04;7.70;99.90
23259;DHT22;11798;51.528;7.240;2022-09-21T05:41:31;7.70;99.90
23259;DHT22;11798;51.528;7.240;2022-09-21T05:43:57;7.70;99.90
23259;DHT22;11798;51.528;7.240;2022-09-21T05:46:40;7.70;99.90
23259;DHT22;11798;51.528;7.240;2022-09-21T05:52:08;7.70;99.90
23259;DHT22;11798;51.528;7.240;2022-09-21T05:58:15;7.80;99.90
23259;DHT22;11798;51.528;7.240;2022-09-21T06:03:43;7.80;99.90
23259;DHT22;11798;51.528;7.240;2022-09-21T06:06:08;7.80;99.90
23259;DHT22;11798;51.528;7.240;2022-09-21T06:08:34;7.80;99.90
23259;DHT22;11798;51.528;7.240;2022-09-21T06:11:00;7.90;99.90
23259;DHT22;11798;51.528;7.240;2022-09-21T06:13:26;7.90;99.90
23259;DHT22;11798;51.528;7.240;2022-09-21T06:15:52;7.90;99.90
23259;DHT22;11798;51.528;7.240;2022-09-21T06:18:18;7.90;99.90
23259;DHT22;11798;51.528;7.240;2022-09-21T06:20:44;8.00;99.90
23259;DHT22;11798;51.528;7.240;2022-09-21T06:23:11;8.00;99.90
23259;DHT22;11798;51.528;7.240;2022-09-21T06:25:37;8.10;99.90
23259;DHT22;11798;51.528;7.240;2022-09-21T06:28:04;8.10;99.90
23259;DHT22;11798;51.528;7.240;2022-09-21T06:30:31;8.10;99.90
23259;DHT22;11798;51.528;7.240;2022-09-21T06:33:00;8.20;99.90
23259;DHT22;11798;51.528;7.240;2022-09-21T06:35:27;8.20;99.90
23259;DHT22;11798;51.528;7.240;2022-09-21T06:37:57;8.30;99.90
23259;DHT22;11798;51.528;7.240;2022-09-21T06:40:24;8.30;99.90
23259;DHT22;11798;51.528;7.240;2022-09-21T06:42:54;8.40;99.90
23259;DHT22;11798;51.528;7.240;2022-09-21T06:45:20;8.40;99.90
23259;DHT22;11798;51.528;7.240;2022-09-21T06:47:46;8.40;99.90
23259;DHT22;11798;51.528;7.240;2022-09-21T06:50:12;8.50;99.90
23259;DHT22;11798;51.528;7.240;2022-09-21T06:52:38;8.50;99.90
23259;DHT22;11798;51.528;7.240;2022-09-21T06:55:05;8.60;99.90
23259;DHT22;11798;51.528;7.240;2022-09-21T06:57:31;8.60;99.90
23259;DHT22;11798;51.528;7.240;2022-09-21T06:59:56;8.70;99.90
23259;DHT22;11798;51.528;7.240;2022-09-21T07:02:22;8.80;99.90
23259;DHT22;11798;51.528;7.240;2022-09-21T07:04:47;8.80;99.90
23259;DHT22;11798;51.528;7.240;2022-09-21T07:07:13;8.90;99.90
23259;DHT22;11798;51.528;7.240;2022-09-21T07:09:38;9.00;99.90
23259;DHT22;11798;51.528;7.240;2022-09-21T07:12:04;9.00;99.90
23259;DHT22;11798;51.528;7.240;2022-09-21T07:14:31;9.10;99.90
23259;DHT22;11798;51.528;7.240;2022-09-21T07:16:56;9.20;99.90
23259;DHT22;11798;51.528;7.240;2022-09-21T07:19:22;9.30;99.90
23259;DHT22;11798;51.528;7.240;2022-09-21T07:21:48;9.40;99.90
23259;DHT22;11798;51.528;7.240;2022-09-21T07:24:13;9.40;99.90
23259;DHT22;11798;51.528;7.240;2022-09-21T07:26:39;9.50;99.90
23259;DHT22;11798;51.528;7.240;2022-09-21T07:29:05;9.60;99.90
23259;DHT22;11798;51.528;7.240;2022-09-21T07:31:31;9.70;99.90
23259;DHT22;11798;51.528;7.240;2022-09-21T07:33:57;9.80;99.90
23259;DHT22;11798;51.528;7.240;2022-09-21T07:36:23;9.90;99.90
23259;DHT22;11798;51.528;7.240;2022-09-21T07:38:49;10.00;99.90
23259;DHT22;11798;51.528;7.240;2022-09-21T07:41:14;10.10;99.90
23259;DHT22;11798;51.528;7.240;2022-09-21T07:43:40;10.20;99.90
23259;DHT22;11798;51.528;7.240;2022-09-21T07:46:08;10.30;99.90
23259;DHT22;11798;51.528;7.240;2022-09-21T07:48:35;10.40;99.90
23259;DHT22;11798;51.528;7.240;2022-09-21T07:51:03;10.50;99.90
23259;DHT22;11798;51.528;7.240;2022-09-21T07:53:34;10.60;99.90
23259;DHT22;11798;51.528;7.240;2022-09-21T07:56:10;10.70;99.90
23259;DHT22;11798;51.528;7.240;2022-09-21T07:58:36;10.80;99.90
23259;DHT22;11798;51.528;7.240;2022-09-21T08:01:21;10.90;99.90
23259;DHT22;11798;51.528;7.240;2022-09-21T08:03:50;11.00;99.90
23259;DHT22;11798;51.528;7.240;2022-09-21T08:06:17;11.10;99.90
23259;DHT22;11798;51.528;7.240;2022-09-21T08:08:43;11.20;99.90
23259;DHT22;11798;51.528;7.240;2022-09-21T08:11:13;11.30;99.90
23259;DHT22;11798;51.528;7.240;2022-09-21T08:13:38;11.40;99.90
23259;DHT22;11798;51.528;7.240;2022-09-21T08:16:04;11.50;99.90
23259;DHT22;11798;51.528;7.240;2022-09-21T08:18:30;11.60;99.90
23259;DHT22;11798;51.528;7.240;2022-09-21T08:20:58;11.70;99.90
23259;DHT22;11798;51.528;7.240;2022-09-21T08:23:24;11.80;99.90
23259;DHT22;11798;51.528;7.240;2022-09-21T08:26:01;11.90;99.90
23259;DHT22;11798;51.528;7.240;2022-09-21T08:28:28;12.00;99.90
23259;DHT22;11798;51.528;7.240;2022-09-21T08:30:58;12.10;99.90
23259;DHT22;11798;51.528;7.240;2022-09-21T08:33:24;12.20;99.90
23259;DHT22;11798;51.528;7.240;2022-09-21T08:35:53;12.30;99.90
23259;DHT22;11798;51.528;7.240;2022-09-21T08:38:19;12.30;99.90
23259;DHT22;11798;51.528;7.240;2022-09-21T08:40:45;12.50;99.90
23259;DHT22;11798;51.528;7.240;2022-09-21T08:43:14;12.60;99.90
23259;DHT22;11798;51.528;7.240;2022-09-21T08:45:44;12.60;99.90
23259;DHT22;11798;51.528;7.240;2022-09-21T08:48:30;12.90;99.90
23259;DHT22;11798;51.528;7.240;2022-09-21T08:51:03;12.90;99.90
23259;DHT22;11798;51.528;7.240;2022-09-21T08:53:37;13.00;99.90
23259;DHT22;11798;51.528;7.240;2022-09-21T08:56:03;13.10;99.90
23259;DHT22;11798;51.528;7.240;2022-09-21T08:58:30;13.10;99.90
23259;DHT22;11798;51.528;7.240;2022-09-21T09:04:14;13.30;99.90
23259;DHT22;11798;51.528;7.240;2022-09-21T09:06:43;13.40;99.90
23259;DHT22;11798;51.528;7.240;2022-09-21T09:09:25;13.40;99.90
23259;DHT22;11798;51.528;7.240;2022-09-21T09:17:47;13.60;99.90
23259;DHT22;11798;51.528;7.240;2022-09-21T09:20:27;13.70;99.90
23259;DHT22;11798;51.528;7.240;2022-09-21T09:25:22;13.80;99.90
23259;DHT22;11798;51.528;7.240;2022-09-21T09:27:58;13.80;99.90
23259;DHT22;11798;51.528;7.240;2022-09-21T09:30:29;14.00;99.90
23259;DHT22;11798;51.528;7.240;2022-09-21T09:33:09;14.00;99.90
23259;DHT22;11798;51.528;7.240;2022-09-21T09:36:01;14.20;99.90
23259;DHT22;11798;51.528;7.240;2022-09-21T09:38:37;14.30;99.90
23259;DHT22;11798;51.528;7.240;2022-09-21T09:46:37;14.40;99.90
23259;DHT22;11798;51.528;7.240;2022-09-21T09:51:38;14.70;99.90
23259;DHT22;11798;51.528;7.240;2022-09-21T09:54:05;14.70;99.90
23259;DHT22;11798;51.528;7.240;2022-09-21T09:56:37;14.70;99.90
23259;DHT22;11798;51.528;7.240;2022-09-21T09:59:04;14.80;99.90
23259;DHT22;11798;51.528;7.240;2022-09-21T10:01:43;14.90;99.90
23259;DHT22;11798;51.528;7.240;2022-09-21T10:04:15;15.10;99.90
23259;DHT22;11798;51.528;7.240;2022-09-21T10:06:42;15.10;99.90
23259;DHT22;11798;51.528;7.240;2022-09-21T10:09:23;15.30;99.90
23259;DHT22;11798;51.528;7.240;2022-09-21T10:11:50;15.30;99.90
23259;DHT22;11798;51.528;7.240;2022-09-21T10:14:19;15.50;99.90
23259;DHT22;11798;51.528;7.240;2022-09-21T10:16:48;15.30;99.90
23259;DHT22;11798;51.528;7.240;2022-09-21T10:19:26;15.30;99.90
23259;DHT22;11798;51.528;7.240;2022-09-21T10:22:03;15.40;99.90
23259;DHT22;11798;51.528;7.240;2022-09-21T10:24:31;15.50;99.90
23259;DHT22;11798;51.528;7.240;2022-09-21T10:27:14;15.60;99.90
23259;DHT22;11798;51.528;7.240;2022-09-21T10:29:46;15.60;99.90
23259;DHT22;11798;51.528;7.240;2022-09-21T10:34:39;15.40;99.90
23259;DHT22;11798;51.528;7.240;2022-09-21T10:37:41;15.40;99.90
23259;DHT22;11798;51.528;7.240;2022-09-21T10:42:42;15.40;99.90
23259;DHT22;11798;51.528;7.240;2022-09-21T10:45:15;15.50;99.90
23259;DHT22;11798;51.528;7.240;2022-09-21T10:47:49;15.80;99.90
23259;DHT22;11798;51.528;7.240;2022-09-21T10:50:26;15.80;99.90
23259;DHT22;11798;51.528;7.240;2022-09-21T10:53:40;15.90;99.90
23259;DHT22;11798;51.528;7.240;2022-09-21T10:58:27;16.10;99.90
23259;DHT22;11798;51.528;7.240;2022-09-21T11:00:53;16.20;99.90
23259;DHT22;11798;51.528;7.240;2022-09-21T11:03:50;16.10;99.90
23259;DHT22;11798;51.528;7.240;2022-09-21T11:06:25;16.10;99.90
23259;DHT22;11798;51.528;7.240;2022-09-21T11:09:04;16.30;99.90
23259;DHT22;11798;51.528;7.240;2022-09-21T11:14:54;16.30;99.90
23259;DHT22;11798;51.528;7.240;2022-09-21T11:17:45;16.30;99.90
23259;DHT22;11798;51.528;7.240;2022-09-21T11:20:41;16.20;99.90
23259;DHT22;11798;51.528;7.240;2022-09-21T11:25:44;16.40;99.90
23259;DHT22;11798;51.528;7.240;2022-09-21T11:28:32;16.40;99.90
23259;DHT22;11798;51.528;7.240;2022-09-21T11:36:45;16.10;99.90
23259;DHT22;11798;51.528;7.240;2022-09-21T11:44:34;16.10;99.90
23259;DHT22;11798;51.528;7.240;2022-09-21T11:47:22;16.00;99.90
23259;DHT22;11798;51.528;7.240;2022-09-21T11:52:50;16.00;99.90
23259;DHT22;11798;51.528;7.240;2022-09-21T11:55:24;16.00;99.90
23259;DHT22;11798;51.528;7.240;2022-09-21T11:58:19;16.10;99.90
23259;DHT22;11798;51.528;7.240;2022-09-21T12:01:00;16.30;99.90
23259;DHT22;11798;51.528;7.240;2022-09-21T12:12:10;16.50;99.90
23259;DHT22;11798;51.528;7.240;2022-09-21T12:14:50;16.50;99.90
23259;DHT22;11798;51.528;7.240;2022-09-21T12:23:40;16.50;99.90
23259;DHT22;11798;51.528;7.240;2022-09-21T12:26:06;16.50;99.90
23259;DHT22;11798;51.528;7.240;2022-09-21T12:28:39;16.50;99.90
23259;DHT22;11798;51.528;7.240;2022-09-21T12:31:14;16.50;99.90
23259;DHT22;11798;51.528;7.240;2022-09-21T12:33:52;16.50;99.90
23259;DHT22;11798;51.528;7.240;2022-09-21T12:36:24;16.60;99.90
23259;DHT22;11798;51.528;7.240;2022-09-21T12:41:43;16.50;99.90
23259;DHT22;11798;51.528;7.240;2022-09-21T12:44:21;16.60;99.90
23259;DHT22;11798;51.528;7.240;2022-09-21T12:46:59;16.70;99.90
23259;DHT22;11798;51.528;7.240;2022-09-21T12:49:39;16.80;99.90
23259;DHT22;11798;51.528;7.240;2022-09-21T12:52:06;16.70;99.90
23259;DHT22;11798;51.528;7.240;2022-09-21T12:54:35;16.70;99.90
23259;DHT22;11798;51.528;7.240;2022-09-21T12:57:26;16.70;99.90
23259;DHT22;11798;51.528;7.240;2022-09-21T13:00:09;16.80;99.90
23259;DHT22;11798;51.528;7.240;2022-09-21T13:03:00;16.80;99.90
23259;DHT22;11798;51.528;7.240;2022-09-21T13:05:49;16.80;99.90
23259;DHT22;11798;51.528;7.240;2022-09-21T13:08:31;16.70;99.90
23259;DHT22;11798;51.528;7.240;2022-09-21T13:11:00;16.70;99.90
23259;DHT22;11798;51.528;7.240;2022-09-21T13:13:51;16.70;99.90
23259;DHT22;11798;51.528;7.240;2022-09-21T13:16:38;16.70;99.90
23259;DHT22;11798;51.528;7.240;2022-09-21T13:19:24;16.80;99.90
23259;DHT22;11798;51.528;7.240;2022-09-21T13:22:29;16.80;99.90
23259;DHT22;11798;51.528;7.240;2022-09-21T13:25:01;16.70;99.90
23259;DHT22;11798;51.528;7.240;2022-09-21T13:30:44;16.70;99.90
23259;DHT22;11798;51.528;7.240;2022-09-21T13:36:02;16.80;99.90
23259;DHT22;11798;51.528;7.240;2022-09-21T13:38:32;16.90;99.90
23259;DHT22;11798;51.528;7.240;2022-09-21T13:51:31;16.80;99.90
23259;DHT22;11798;51.528;7.240;2022-09-21T13:53:58;16.80;99.90
23259;DHT22;11798;51.528;7.240;2022-09-21T13:56:26;16.80;99.90
23259;DHT22;11798;51.528;7.240;2022-09-21T13:58:55;16.80;99.90
23259;DHT22;11798;51.528;7.240;2022-09-21T14:01:31;16.70;99.90
23259;DHT22;11798;51.528;7.240;2022-09-21T14:04:03;16.60;99.90
23259;DHT22;11798;51.528;7.240;2022-09-21T14:06:34;16.70;99.90
23259;DHT22;11798;51.528;7.240;2022-09-21T14:09:20;16.60;99.90
23259;DHT22;11798;51.528;7.240;2022-09-21T14:11:54;16.60;99.90
23259;DHT22;11798;51.528;7.240;2022-09-21T14:14:35;16.50;99.90
23259;DHT22;11798;51.528;7.240;2022-09-21T14:17:33;16.50;99.90
23259;DHT22;11798;51.528;7.240;2022-09-21T14:19:59;16.50;99.90
23259;DHT22;11798;51.528;7.240;2022-09-21T14:25:19;16.50;99.90
23259;DHT22;11798;51.528;7.240;2022-09-21T14:27:49;16.50;99.90
23259;DHT22;11798;51.528;7.240;2022-09-21T14:30:24;16.60;99.90
23259;DHT22;11798;51.528;7.240;2022-09-21T14:35:29;16.60;99.90
23259;DHT22;11798;51.528;7.240;2022-09-21T14:37:59;16.60;99.90
23259;DHT22;11798;51.528;7.240;2022-09-21T14:40:33;16.60;99.90
23259;DHT22;11798;51.528;7.240;2022-09-21T14:43:07;16.50;99.90
23259;DHT22;11798;51.528;7.240;2022-09-21T14:48:48;16.50;99.90
23259;DHT22;11798;51.528;7.240;2022-09-21T14:54:49;16.60;99.90
23259;DHT22;11798;51.528;7.240;2022-09-21T14:58:03;16.50;99.90
23259;DHT22;11798;51.528;7.240;2022-09-21T15:00:43;16.50;99.90
23259;DHT22;11798;51.528;7.240;2022-09-21T15:12:13;16.30;99.90
23259;DHT22;11798;51.528;7.240;2022-09-21T15:14:45;16.20;99.90
23259;DHT22;11798;51.528;7.240;2022-09-21T15:17:49;16.20;99.90
23259;DHT22;11798;51.528;7.240;2022-09-21T15:20:21;16.10;99.90
23259;DHT22;11798;51.528;7.240;2022-09-21T15:22:56;16.10;99.90
23259;DHT22;11798;51.528;7.240;2022-09-21T15:25:24;16.00;99.90
23259;DHT22;11798;51.528;7.240;2022-09-21T15:27:51;15.90;99.90
23259;DHT22;11798;51.528;7.240;2022-09-21T15:30:23;15.90;99.90
23259;DHT22;11798;51.528;7.240;2022-09-21T15:32:55;15.70;99.90
23259;DHT22;11798;51.528;7.240;2022-09-21T15:35:32;15.50;99.90
23259;DHT22;11798;51.528;7.240;2022-09-21T15:37:58;15.40;99.90
23259;DHT22;11798;51.528;7.240;2022-09-21T15:40:34;15.20;99.90
23259;DHT22;11798;51.528;7.240;2022-09-21T15:45:51;15.10;99.90
23259;DHT22;11798;51.528;7.240;2022-09-21T15:48:19;15.00;99.90
23259;DHT22;11798;51.528;7.240;2022-09-21T15:50:49;14.90;99.90
23259;DHT22;11798;51.528;7.240;2022-09-21T15:53:22;15.50;99.90
23259;DHT22;11798;51.528;7.240;2022-09-21T15:55:50;15.40;99.90
23259;DHT22;11798;51.528;7.240;2022-09-21T15:58:32;16.00;99.90
23259;DHT22;11798;51.528;7.240;2022-09-21T16:01:08;16.80;99.90
23259;DHT22;11798;51.528;7.240;2022-09-21T16:03:35;16.70;99.90
23259;DHT22;11798;51.528;7.240;2022-09-21T16:08:42;16.10;99.90
23259;DHT22;11798;51.528;7.240;2022-09-21T16:13:56;15.80;99.90
23259;DHT22;11798;51.528;7.240;2022-09-21T16:22:38;15.40;99.90
23259;DHT22;11798;51.528;7.240;2022-09-21T16:25:27;15.30;99.90
23259;DHT22;11798;51.528;7.240;2022-09-21T16:38:42;15.00;99.90
23259;DHT22;11798;51.528;7.240;2022-09-21T16:41:09;14.90;99.90
23259;DHT22;11798;51.528;7.240;2022-09-21T16:43:35;14.70;99.90
23259;DHT22;11798;51.528;7.240;2022-09-21T16:46:11;14.70;99.90
23259;DHT22;11798;51.528;7.240;2022-09-21T16:48:37;14.70;99.90
23259;DHT22;11798;51.528;7.240;2022-09-21T16:51:04;14.50;99.90
23259;DHT22;11798;51.528;7.240;2022-09-21T16:53:33;14.50;99.90
23259;DHT22;11798;51.528;7.240;2022-09-21T16:55:58;14.40;99.90
23259;DHT22;11798;51.528;7.240;2022-09-21T16:58:24;14.30;99.90
23259;DHT22;11798;51.528;7.240;2022-09-21T17:00:51;14.20;99.90
23259;DHT22;11798;51.528;7.240;2022-09-21T17:03:18;14.20;99.90
23259;DHT22;11798;51.528;7.240;2022-09-21T17:05:44;14.10;99.90
23259;DHT22;11798;51.528;7.240;2022-09-21T17:08:11;14.10;99.90
23259;DHT22;11798;51.528;7.240;2022-09-21T17:10:40;14.00;99.90
23259;DHT22;11798;51.528;7.240;2022-09-21T17:13:09;14.00;99.90
23259;DHT22;11798;51.528;7.240;2022-09-21T17:15:38;13.80;99.90
23259;DHT22;11798;51.528;7.240;2022-09-21T17:18:05;13.80;99.90
23259;DHT22;11798;51.528;7.240;2022-09-21T17:20:37;13.70;99.90
23259;DHT22;11798;51.528;7.240;2022-09-21T17:23:03;13.70;99.90
23259;DHT22;11798;51.528;7.240;2022-09-21T17:25:30;13.60;99.90
23259;DHT22;11798;51.528;7.240;2022-09-21T17:27:57;13.50;99.90
23259;DHT22;11798;51.528;7.240;2022-09-21T17:30:24;13.30;99.90
23259;DHT22;11798;51.528;7.240;2022-09-21T17:32:50;13.30;99.90
23259;DHT22;11798;51.528;7.240;2022-09-21T17:37:56;13.10;99.90
23259;DHT22;11798;51.528;7.240;2022-09-21T17:40:22;13.00;99.90
23259;DHT22;11798;51.528;7.240;2022-09-21T17:42:49;12.90;99.90
23259;DHT22;11798;51.528;7.240;2022-09-21T17:47:51;12.80;99.90
23259;DHT22;11798;51.528;7.240;2022-09-21T17:50:23;12.70;99.90
23259;DHT22;11798;51.528;7.240;2022-09-21T17:52:50;12.70;99.90
23259;DHT22;11798;51.528;7.240;2022-09-21T17:55:44;12.60;99.90
23259;DHT22;11798;51.528;7.240;2022-09-21T18:03:29;12.40;99.90
23259;DHT22;11798;51.528;7.240;2022-09-21T18:05:56;12.30;99.90
23259;DHT22;11798;51.528;7.240;2022-09-21T18:08:26;12.30;99.90
23259;DHT22;11798;51.528;7.240;2022-09-21T18:17:14;12.00;99.90
23259;DHT22;11798;51.528;7.240;2022-09-21T18:20:09;12.00;99.90
23259;DHT22;11798;51.528;7.240;2022-09-21T18:25:32;11.90;99.90
23259;DHT22;11798;51.528;7.240;2022-09-21T18:28:09;11.80;99.90
23259;DHT22;11798;51.528;7.240;2022-09-21T18:30:39;11.80;99.90
23259;DHT22;11798;51.528;7.240;2022-09-21T18:33:29;11.70;99.90
23259;DHT22;11798;51.528;7.240;2022-09-21T18:36:10;11.70;99.90
23259;DHT22;11798;51.528;7.240;2022-09-21T18:38:52;11.60;99.90
23259;DHT22;11798;51.528;7.240;2022-09-21T18:41:26;11.60;99.90
23259;DHT22;11798;51.528;7.240;2022-09-21T18:44:12;11.60;99.90
23259;DHT22;11798;51.528;7.240;2022-09-21T18:55:21;11.40;99.90
23259;DHT22;11798;51.528;7.240;2022-09-21T18:57:50;11.30;99.90
23259;DHT22;11798;51.528;7.240;2022-09-21T19:00:16;11.30;99.90
23259;DHT22;11798;51.528;7.240;2022-09-21T19:02:42;11.30;99.90
23259;DHT22;11798;51.528;7.240;2022-09-21T19:05:11;11.30;99.90
23259;DHT22;11798;51.528;7.240;2022-09-21T19:07:46;11.20;99.90
23259;DHT22;11798;51.528;7.240;2022-09-21T19:10:32;11.20;99.90
23259;DHT22;11798;51.528;7.240;2022-09-21T19:13:25;11.20;99.90
23259;DHT22;11798;51.528;7.240;2022-09-21T19:16:15;11.10;99.90
23259;DHT22;11798;51.528;7.240;2022-09-21T19:21:53;11.10;99.90
23259;DHT22;11798;51.528;7.240;2022-09-21T19:24:31;11.10;99.90
23259;DHT22;11798;51.528;7.240;2022-09-21T19:30:14;11.00;99.90
23259;DHT22;11798;51.528;7.240;2022-09-21T19:32:45;11.00;99.90
23259;DHT22;11798;51.528;7.240;2022-09-21T19:35:29;10.90;99.90
23259;DHT22;11798;51.528;7.240;2022-09-21T19:38:00;10.90;99.90